Flight Track Log - Related Links

Times and Time Zones

All times are in EDT time to prevent confusion due to time zone crossing. See the UAL4234 flight status page for this flight to view local times or setup timezone preferences in your user account.

Time Position Orientation Groundspeed Altitude Reporting Facility
EDT Latitude Longitude Course Direction KTS MPH feet Rate Location/Type
Thu 07:13:05 AM 35.2228 -80.9572 251° West 141 162 1,400  Level Atlanta Center
Thu 07:13:59 AM 35.2650 -80.9811 335° Northwest 224 258 2,900 1,644 Climbing Atlanta Center
Thu 07:14:18 AM 35.2697 -81.0039 284° West 243 280 3,400 2,300 Climbing Atlanta Center
Thu 07:14:59 AM 35.2817 -81.0669 283° West 269 310 5,200 3,000 Climbing Atlanta Center
Thu 07:15:30 AM 35.2911 -81.1150 284° West 277 319 7,000 2,700 Climbing Atlanta Center
Thu 07:15:59 AM 35.2900 -81.1533 268° West 280 322 7,900 1,091 Climbing Atlanta Center
Thu 07:16:00 AM 35.2452 -81.2259 199° South  Level FlightAware Approximate
Thu 07:16:25 AM 35.2742 -81.1869 240° Southwest 275 316 8,000  Level Atlanta Center
Thu 07:16:59 AM 35.2458 -81.2261 228° Southwest 292 336 8,000 128 Level Atlanta Center
Thu 07:17:00 AM 35.1586 -81.2630 199° South  Level FlightAware Approximate
Thu 07:17:59 AM 35.1975 -81.2989 231° Southwest 292 336 8,200  Level Atlanta Center
Thu 07:18:00 AM 35.0785 -81.3003 251° West  Level FlightAware Approximate
Thu 07:18:59 AM 35.1550 -81.3614 230° Southwest 287 330 10,600  Level Atlanta Center
Thu 07:19:59 AM 35.1044 -81.4339 230° Southwest 287 330 11,900 1,200 Climbing Atlanta Center
Thu 07:20:59 AM 35.0478 -81.5194 231° Southwest 308 354 13,000 1,400 Climbing Atlanta Center
Thu 07:21:59 AM 34.9931 -81.6047 232° Southwest 324 373 14,700 1,600 Climbing Atlanta Center
Thu 07:22:59 AM 34.9617 -81.7097 250° West 324 373 16,200 1,400 Climbing Atlanta Center
Thu 07:23:59 AM 34.9242 -81.8272 249° West 336 387 17,500 1,100 Climbing Atlanta Center
Thu 07:24:59 AM 34.8697 -81.9222 235° Southwest 342 394 18,400 1,000 Climbing Atlanta Center
Thu 07:25:59 AM 34.8189 -82.0097 235° Southwest 348 400 19,500 1,200 Climbing Atlanta Center
Thu 07:26:59 AM 34.7619 -82.1097 235° Southwest 361 415 20,800 1,250 Climbing Atlanta Center
Thu 07:27:59 AM 34.7053 -82.2094 235° Southwest 366 421 22,000 1,300 Climbing Atlanta Center
Thu 07:28:59 AM 34.6461 -82.3117 235° Southwest 366 421 23,400 1,450 Climbing Atlanta Center
Thu 07:29:59 AM 34.5892 -82.4114 235° Southwest 366 421 24,900 1,500 Climbing Atlanta Center
Thu 07:30:59 AM 34.5319 -82.5108 235° Southwest 366 421 26,400 1,550 Climbing Atlanta Center
Thu 07:31:59 AM 34.4767 -82.6025 234° Southwest 359 413 28,000 1,550 Climbing Atlanta Center
Thu 07:32:59 AM 34.4233 -82.6942 235° Southwest 354 407 29,500 1,550 Climbing Atlanta Center
Thu 07:33:59 AM 34.3700 -82.7831 234° Southwest 336 387 31,100 1,550 Climbing Atlanta Center
Thu 07:34:59 AM 34.3231 -82.8717 237° Southwest 331 381 32,600 1,500 Climbing Atlanta Center
Thu 07:35:59 AM 34.2717 -82.9553 233° Southwest 326 375 34,100 1,500 Climbing Atlanta Center
Thu 07:36:59 AM 34.2203 -83.0439 235° Southwest 312 359 35,600 950 Climbing Atlanta Center
Thu 07:37:59 AM 34.1750 -83.1247 236° Southwest 299 344 36,000 200 Climbing Atlanta Center
Thu 07:38:59 AM 34.1233 -83.2108 234° Southwest 305 351 36,000  Level Atlanta Center
Thu 07:39:59 AM 34.0697 -83.3042 235° Southwest 328 377 36,000  Level Atlanta Center
Thu 07:40:59 AM 34.0139 -83.3947 233° Southwest 345 397 36,000  Level Atlanta Center
Thu 07:41:59 AM 33.9600 -83.4903 236° Southwest 345 397 36,000  Level Atlanta Center
Thu 07:42:59 AM 33.9061 -83.5808 234° Southwest 345 397 36,000  Level Atlanta Center
Thu 07:43:59 AM 33.8522 -83.6711 234° Southwest 336 387 36,000  Level Atlanta Center
Thu 07:44:59 AM 33.8022 -83.7539 234° Southwest 341 392 36,000  Level Atlanta Center
Thu 07:45:59 AM 33.7503 -83.8439 235° Southwest 336 387 36,000  Level Atlanta Center
Thu 07:46:59 AM 33.6939 -83.9339 233° Southwest 336 387 36,000  Level Atlanta Center
Thu 07:47:59 AM 33.6419 -84.0214 235° Southwest 336 387 36,000  Level Atlanta Center
Thu 07:48:59 AM 33.5897 -84.1136 236° Southwest 336 387 36,000  Level Atlanta Center
Thu 07:49:59 AM 33.5292 -84.2108 233° Southwest 336 387 36,000  Level Atlanta Center
Thu 07:50:59 AM 33.4767 -84.3003 235° Southwest 336 387 36,000  Level Atlanta Center
Thu 07:51:59 AM 33.4222 -84.3897 234° Southwest 336 387 36,000  Level Atlanta Center
Thu 07:52:59 AM 33.3678 -84.4792 234° Southwest 336 387 36,000  Level Atlanta Center
Thu 07:53:59 AM 33.3150 -84.5683 235° Southwest 336 387 36,000  Level Atlanta Center
Thu 07:54:59 AM 33.2606 -84.6600 235° Southwest 336 387 36,000  Level Atlanta Center
Thu 07:55:59 AM 33.2036 -84.7489 233° Southwest 341 392 36,000  Level Atlanta Center
Thu 07:56:59 AM 33.1550 -84.8328 235° Southwest 341 392 36,000  Level Atlanta Center
Thu 07:57:59 AM 33.1044 -84.9192 235° Southwest 331 381 36,000  Level Atlanta Center
Thu 07:58:59 AM 33.0475 -85.0078 233° Southwest 341 392 36,000  Level Atlanta Center
Thu 07:59:59 AM 32.9944 -85.0964 234° Southwest 336 387 36,000  Level Atlanta Center
Thu 08:00:59 AM 32.9311 -85.1872 230° Southwest 336 387 36,000  Level Atlanta Center
Thu 08:01:59 AM 32.8758 -85.2756 233° Southwest 336 387 36,000  Level Atlanta Center
Thu 08:02:59 AM 32.8208 -85.3636 233° Southwest 336 387 36,000  Level Atlanta Center
Thu 08:03:59 AM 32.7656 -85.4517 233° Southwest 336 387 36,000  Level Atlanta Center
Thu 08:04:59 AM 32.7122 -85.5422 235° Southwest 336 387 36,000  Level Atlanta Center
Thu 08:05:59 AM 32.6569 -85.6303 233° Southwest 336 387 36,000  Level Atlanta Center
Thu 08:06:59 AM 32.6014 -85.7181 233° Southwest 336 387 36,000  Level Atlanta Center
Thu 08:07:59 AM 32.5458 -85.8081 234° Southwest 336 387 36,000  Level Atlanta Center
Thu 08:08:59 AM 32.4944 -85.8908 234° Southwest 350 403 36,000  Level Atlanta Center
Thu 08:09:59 AM 32.4347 -85.9806 232° Southwest 350 403 36,000  Level Atlanta Center
Thu 08:10:59 AM 32.3747 -86.0728 232° Southwest 355 409 36,000  Level Atlanta Center
Thu 08:11:59 AM 32.3317 -86.1553 238° Southwest 340 391 36,000  Level Atlanta Center
Thu 08:12:59 AM 32.2656 -86.2447 229° Southwest 340 391 36,000  Level Atlanta Center
Thu 08:13:59 AM 32.2133 -86.3489 239° Southwest 340 391 36,000  Level Atlanta Center
Thu 08:14:59 AM 32.1492 -86.4306 227° Southwest 340 391 36,000  Level Atlanta Center
Thu 08:15:59 AM 32.0911 -86.5172 232° Southwest 340 391 36,000  Level Atlanta Center
Thu 08:16:59 AM 32.0289 -86.5989 228° Southwest 346 398 36,000  Level Atlanta Center
Thu 08:17:59 AM 31.9686 -86.6853 231° Southwest 346 398 36,000  Level Atlanta Center
Thu 08:18:59 AM 31.9022 -86.7689 227° Southwest 355 409 36,000  Level Atlanta Center
Thu 08:19:59 AM 31.8461 -86.8528 232° Southwest 350 403 36,000  Level Atlanta Center
Thu 08:22:14 AM 31.7086 -87.0306 228° Southwest 335 386 36,000  Level Houston Center
Thu 08:23:15 AM 31.6467 -87.1147 229° Southwest 339 390 36,000  Level Houston Center
Thu 08:24:17 AM 31.5856 -87.2000 230° Southwest 341 392 36,000  Level Houston Center
Thu 08:25:19 AM 31.5242 -87.2828 229° Southwest 337 388 36,000  Level Houston Center
Thu 08:26:20 AM 31.4636 -87.3667 230° Southwest 337 388 36,000  Level Houston Center
Thu 08:27:22 AM 31.3892 -87.4669 229° Southwest 339 390 36,000  Level Houston Center
Thu 08:28:23 AM 31.3275 -87.5511 229° Southwest 339 390 36,000  Level Houston Center
Thu 08:29:25 AM 31.2661 -87.6350 229° Southwest 339 390 36,000  Level Houston Center
Thu 08:30:27 AM 31.2086 -87.7111 229° Southwest 341 392 36,000  Level Houston Center
Thu 08:31:28 AM 31.1344 -87.8125 229° Southwest 343 395 36,000  Level Houston Center
Thu 08:32:30 AM 31.0722 -87.8964 229° Southwest 344 396 36,000  Level Houston Center
Thu 08:33:32 AM 31.0097 -87.9803 229° Southwest 344 396 36,000  Level Houston Center
Thu 08:34:33 AM 30.9458 -88.0636 228° Southwest 345 397 36,000  Level Houston Center
Thu 08:35:35 AM 30.8822 -88.1472 228° Southwest 346 398 36,000 -48 Level Houston Center
Thu 08:36:37 AM 30.8200 -88.2325 230° Southwest 346 398 35,900  Descending Houston Center
Thu 08:37:38 AM 30.7561 -88.3150 228° Southwest 344 396 36,000 49 Climbing Houston Center
Thu 08:38:40 AM 30.7014 -88.4267 240° Southwest 345 397 36,000  Level Houston Center
Thu 08:39:42 AM 30.6653 -88.5308 248° West 345 397 36,000  Level Houston Center
Thu 08:40:43 AM 30.6289 -88.6350 248° West 347 399 36,000  Level Houston Center
Thu 08:41:45 AM 30.5936 -88.7389 248° West 345 397 36,000  Level Houston Center
Thu 08:42:47 AM 30.5578 -88.8433 248° West 348 400 36,000  Level Houston Center
Thu 08:43:48 AM 30.5206 -88.9508 248° West 349 402 36,000  Level Houston Center
Thu 08:44:50 AM 30.4853 -89.0544 248° West 348 400 36,000  Level Houston Center
Thu 08:45:52 AM 30.4425 -89.1789 248° West 346 398 36,000  Level Houston Center
Thu 08:46:53 AM 30.4069 -89.2839 249° West 350 403 36,000  Level Houston Center
Thu 08:47:55 AM 30.3706 -89.3878 248° West 349 402 36,000  Level Houston Center
Thu 08:48:57 AM 30.3331 -89.4919 247° West 349 402 36,000  Level Houston Center
Thu 08:49:58 AM 30.2964 -89.5969 248° West 349 402 36,000  Level Houston Center
Thu 08:51:00 AM 30.2614 -89.6961 248° West 348 400 36,000  Level Houston Center
Thu 08:52:02 AM 30.2206 -89.8103 248° West 355 409 36,000  Level Houston Center
Thu 08:53:03 AM 30.1839 -89.9147 248° West 349 402 36,000  Level Houston Center
Thu 08:54:05 AM 30.1411 -90.0283 246° West 349 402 36,000  Level Houston Center
Thu 08:55:07 AM 30.1094 -90.1247 249° West 354 407 36,000  Level Houston Center
Thu 08:56:08 AM 30.0714 -90.2308 248° West 357 411 36,000  Level Houston Center
Thu 08:57:10 AM 30.0333 -90.3358 247° West 356 410 36,000  Level Houston Center
Thu 08:58:12 AM 29.9908 -90.4508 247° West 358 412 36,000  Level Houston Center
Thu 08:59:13 AM 29.9492 -90.5692 248° West 359 413 36,000  Level Houston Center
Thu 09:00:15 AM 29.9100 -90.6750 247° West 359 413 36,000  Level Houston Center
Thu 09:01:17 AM 29.8722 -90.7817 248° West 361 415 36,000  Level Houston Center
Thu 09:02:19 AM 29.8331 -90.8889 247° West 362 417 36,000  Level Houston Center
Thu 09:03:20 AM 29.7931 -90.9953 247° West 363 418 36,000  Level Houston Center
Thu 09:04:22 AM 29.7464 -91.1236 247° West 362 417 36,000  Level Houston Center
Thu 09:05:24 AM 29.7078 -91.2311 248° West 364 419 36,000  Level Houston Center
Thu 09:06:26 AM 29.6678 -91.3383 247° West 364 419 36,000  Level Houston Center
Thu 09:07:27 AM 29.6289 -91.4450 247° West 364 419 36,000  Level Houston Center
Thu 09:08:29 AM 29.6075 -91.5592 258° West 368 423 36,000  Level Houston Center
Thu 09:09:31 AM 29.5869 -91.6739 258° West 367 422 36,000  Level Houston Center
Thu 09:10:33 AM 29.5661 -91.8008 259° West 368 423 36,000  Level Houston Center
Thu 09:11:34 AM 29.5469 -91.9164 259° West 368 423 36,000  Level Houston Center
Thu 09:12:36 AM 29.5281 -92.0314 259° West 367 422 36,000  Level Houston Center
Thu 09:13:38 AM 29.5092 -92.1469 259° West 369 425 36,000  Level Houston Center
Thu 09:14:40 AM 29.4861 -92.2850 259° West 367 422 36,000  Level Houston Center
Thu 09:15:41 AM 29.4667 -92.3986 259° West 364 419 36,000  Level Houston Center
Thu 09:16:43 AM 29.4594 -92.5128 266° West 361 415 36,000  Level Houston Center
Thu 09:17:45 AM 29.4647 -92.6306 273° West 368 423 36,000  Level Houston Center
Thu 09:18:47 AM 29.4697 -92.7472 273° West 367 422 36,000  Level Houston Center
Thu 09:19:48 AM 29.4758 -92.8633 273° West 365 420 36,000  Level Houston Center
Thu 09:20:50 AM 29.4806 -92.9797 273° West 365 420 36,000 -387 Level Houston Center
Thu 09:21:52 AM 29.4858 -93.0972 273° West 367 422 35,200 -1,839 Descending Houston Center
Thu 09:22:54 AM 29.4911 -93.2306 273° West 351 404 32,200 -2,661 Descending Houston Center
Thu 09:23:56 AM 29.4958 -93.3400 273° West 345 397 29,700 -2,341 Descending Houston Center
Thu 09:24:57 AM 29.5006 -93.4606 273° West 371 427 27,400 -2,000 Descending Houston Center
Thu 09:25:59 AM 29.5056 -93.5758 273° West 365 420 25,600 -1,790 Descending Houston Center
Thu 09:27:01 AM 29.5097 -93.6856 273° West 349 402 23,700 -1,839 Descending Houston Center
Thu 09:28:03 AM 29.5142 -93.7914 273° West 335 386 21,800 -1,839 Descending Houston Center
Thu 09:29:05 AM 29.5175 -93.8956 272° West 328 377 19,900 -1,980 Descending Houston Center
Thu 09:29:43 AM 29.5200 -93.9744 272° West 317 365 18,500 -1,913 Descending Houston Center
Thu 09:30:14 AM 29.5219 -94.0342 272° West 318 366 17,700 -1,674 Descending Houston Center
Thu 09:31:09 AM 29.5256 -94.1231 273° West 329 379 16,100 -1,759 Descending Houston Center
Thu 09:32:10 AM 29.5294 -94.2286 272° West 318 366 14,300 -1,525 Descending Houston Center
Thu 09:33:11 AM 29.5328 -94.3286 272° West 301 346 13,000 -629 Descending Houston Center
Thu 09:34:14 AM 29.5617 -94.4119 292° West 300 345 13,000 -480 Level Houston Center
Thu 09:35:16 AM 29.6000 -94.4986 297° West 305 351 12,000 -1,016 Descending Houston Center
Thu 09:36:18 AM 29.6356 -94.5842 296° West 299 344 10,900 -919 Descending Houston Center
Thu 09:37:20 AM 29.6783 -94.6581 304° West 289 333 10,100 -968 Descending Houston Center
Thu 09:38:22 AM 29.7603 -94.6944 339° North 264 304 8,900 -1,065 Descending Houston Center
Thu 09:39:24 AM 29.8322 -94.7256 339° North 266 306 7,900 -1,024 Descending Houston Center
Thu 09:40:25 AM 29.9022 -94.7553 340° North 254 292 6,800 -1,306 Descending Houston Center
Thu 09:41:28 AM 29.9583 -94.7814 338° Northwest 250 288 5,200 -1,759 Descending Houston Center
Thu 09:42:21 AM 29.9889 -94.8481 298° West 227 261 3,400 -1,065 Descending Houston Center
Thu 09:43:32 AM 30.0111 -94.9236 289° West 238 274 3,000 -195 Descending Houston Center
Thu 09:44:24 AM 30.0061 -94.9858 265° West 233 268 3,000  Level Houston Center
Thu 09:45:25 AM 30.0075 -95.0678 271° West 238 274 3,000 49 Level Houston Center
Thu 09:46:26 AM 30.0083 -95.1425 271° West 232 267 3,100 -393 Climbing Houston Center
Thu 09:47:27 AM 30.0069 -95.2175 269° West 227 261 2,200 -934 Descending Houston Center
Thu 09:48:28 AM 30.0078 -95.2728 271° West 134 154 1,200 -984 Descending Houston Center

Login

Don't have an account? Register now (free) for customized features, flight alerts, and more!